createdAt,value
2023-03-07T00:01:05.312Z,7.00
2023-03-07T00:03:32.345Z,7.10
2023-03-07T00:06:04.912Z,7.00
2023-03-07T00:08:31.982Z,7.60
2023-03-07T00:11:04.887Z,8.20
2023-03-07T00:13:31.893Z,6.80
2023-03-07T00:16:09.816Z,7.20
2023-03-07T00:18:36.640Z,7.30
2023-03-07T00:21:05.814Z,7.10
2023-03-07T00:23:33.732Z,7.30
2023-03-07T00:26:02.357Z,7.70
2023-03-07T00:28:29.729Z,7.70
2023-03-07T00:31:05.562Z,7.60
2023-03-07T00:33:35.524Z,7.20
2023-03-07T00:36:14.385Z,7.70
2023-03-07T00:38:41.688Z,7.80
2023-03-07T00:41:10.953Z,7.80
2023-03-07T00:43:38.275Z,6.90
2023-03-07T00:46:05.926Z,7.60
2023-03-07T00:48:33.755Z,8.00
2023-03-07T00:51:04.230Z,7.80
2023-03-07T00:53:31.663Z,8.60
2023-03-07T00:56:06.734Z,7.00
2023-03-07T00:58:34.615Z,8.10
2023-03-07T01:01:02.031Z,8.00
2023-03-07T01:03:29.625Z,8.90
2023-03-07T01:05:57.225Z,8.60
2023-03-07T01:08:25.998Z,8.00
2023-03-07T01:10:58.249Z,8.30
2023-03-07T01:13:25.270Z,8.30
2023-03-07T01:15:52.512Z,8.00
2023-03-07T01:18:19.233Z,8.50
2023-03-07T01:20:46.219Z,9.10
2023-03-07T01:23:13.029Z,8.40
2023-03-07T01:25:41.077Z,8.80
2023-03-07T01:28:11.742Z,8.30
2023-03-07T01:30:38.681Z,8.60
2023-03-07T01:33:06.709Z,9.50
2023-03-07T01:35:38.291Z,8.80
2023-03-07T01:38:05.344Z,8.80
2023-03-07T01:40:33.386Z,9.60
2023-03-07T01:43:25.265Z,8.60
2023-03-07T01:46:18.994Z,7.10
2023-03-07T01:49:04.946Z,9.30
2023-03-07T01:51:34.260Z,10.20
2023-03-07T01:54:03.451Z,9.10
2023-03-07T01:56:31.547Z,9.20
2023-03-07T01:58:58.367Z,9.80
2023-03-07T02:01:25.238Z,10.30
2023-03-07T02:03:57.155Z,10.70
2023-03-07T02:06:24.667Z,9.70
2023-03-07T02:08:54.373Z,9.40
2023-03-07T02:11:21.571Z,10.30
2023-03-07T02:13:48.426Z,10.30
2023-03-07T02:16:18.398Z,11.60
2023-03-07T02:18:49.150Z,10.80
2023-03-07T02:21:19.291Z,11.70
2023-03-07T02:23:56.200Z,12.60
2023-03-07T02:26:27.781Z,12.60
2023-03-07T02:29:01.160Z,11.90
2023-03-07T02:31:31.361Z,13.40
2023-03-07T02:33:59.195Z,13.10
2023-03-07T02:36:29.172Z,11.80
2023-03-07T02:39:06.225Z,12.50
2023-03-07T02:41:33.030Z,13.60
2023-03-07T02:44:02.681Z,13.00
2023-03-07T02:46:30.027Z,13.30
2023-03-07T02:48:56.735Z,13.80
2023-03-07T02:51:23.884Z,13.60
2023-03-07T02:53:50.798Z,13.30
2023-03-07T02:56:17.646Z,12.90
2023-03-07T02:58:44.395Z,12.70
2023-03-07T03:01:11.127Z,13.10
2023-03-07T03:03:38.552Z,13.10
2023-03-07T03:06:06.430Z,12.50
2023-03-07T03:08:33.408Z,12.80
2023-03-07T03:11:00.183Z,12.60
2023-03-07T03:13:29.836Z,12.10
2023-03-07T03:15:57.221Z,12.80
2023-03-07T03:18:27.059Z,12.60
2023-03-07T03:20:53.771Z,12.00
2023-03-07T03:23:20.997Z,12.20
2023-03-07T03:26:00.110Z,12.10
2023-03-07T03:28:28.829Z,12.70
2023-03-07T03:31:22.132Z,11.70
2023-03-07T03:33:56.080Z,12.10
2023-03-07T03:36:25.730Z,11.60
2023-03-07T03:38:57.032Z,11.60
2023-03-07T03:41:24.824Z,11.60
2023-03-07T03:43:51.707Z,12.10
2023-03-07T03:46:19.102Z,11.70
2023-03-07T03:48:53.032Z,12.00
2023-03-07T03:51:21.271Z,12.00
2023-03-07T03:53:48.044Z,12.50
2023-03-07T03:56:17.482Z,12.40
2023-03-07T03:58:51.028Z,12.50
2023-03-07T04:01:18.383Z,12.10
2023-03-07T04:03:46.627Z,11.70
2023-03-07T04:06:18.278Z,13.10
2023-03-07T04:08:50.989Z,12.30
2023-03-07T04:11:18.360Z,12.60
2023-03-07T04:13:46.625Z,12.20
2023-03-07T04:16:13.892Z,12.40
2023-03-07T04:18:42.453Z,12.50
2023-03-07T04:21:10.583Z,12.30
2023-03-07T04:23:41.603Z,12.10
2023-03-07T04:26:09.242Z,14.10
2023-03-07T04:28:44.685Z,11.70
2023-03-07T04:31:26.126Z,12.20
2023-03-07T04:33:54.592Z,12.00
2023-03-07T04:36:22.015Z,12.10
2023-03-07T04:38:49.387Z,12.60
2023-03-07T04:41:18.002Z,12.00
2023-03-07T04:43:46.413Z,12.20
2023-03-07T04:46:13.887Z,12.70
2023-03-07T04:48:41.266Z,12.30
2023-03-07T04:51:08.661Z,12.10
2023-03-07T04:53:38.593Z,13.10
2023-03-07T04:56:07.638Z,12.30
2023-03-07T04:58:36.292Z,12.90
2023-03-07T05:01:03.952Z,12.00
2023-03-07T05:03:31.073Z,12.30
2023-03-07T05:06:05.604Z,12.50
2023-03-07T05:08:34.327Z,13.50
2023-03-07T05:11:01.463Z,14.00
2023-03-07T05:13:29.487Z,13.00
2023-03-07T05:15:57.349Z,13.20
2023-03-07T05:18:25.599Z,14.30
2023-03-07T05:20:52.882Z,13.80
2023-03-07T05:23:20.881Z,14.20
2023-03-07T05:25:49.747Z,14.30
2023-03-07T05:28:17.282Z,14.50
2023-03-07T05:30:46.191Z,14.30
2023-03-07T05:33:13.462Z,14.00
2023-03-07T05:35:40.501Z,14.60
2023-03-07T05:38:08.434Z,14.60
2023-03-07T05:40:35.956Z,13.50
2023-03-07T05:43:09.542Z,13.80
2023-03-07T05:45:37.142Z,12.80
2023-03-07T05:48:04.119Z,14.30
2023-03-07T05:50:32.200Z,13.10
2023-03-07T05:53:00.098Z,13.70
2023-03-07T05:55:32.931Z,13.40
2023-03-07T05:57:59.987Z,13.30
2023-03-07T06:00:27.004Z,13.00
2023-03-07T06:02:56.284Z,13.50
2023-03-07T06:05:25.292Z,12.90
2023-03-07T06:07:58.587Z,14.50
2023-03-07T06:10:26.105Z,13.30
2023-03-07T06:12:53.305Z,13.90
2023-03-07T06:15:26.342Z,14.10
2023-03-07T06:17:58.799Z,13.90
2023-03-07T06:20:26.073Z,13.80
2023-03-07T06:22:54.215Z,13.20
2023-03-07T06:25:21.203Z,13.50
2023-03-07T06:27:48.575Z,13.50
2023-03-07T06:30:15.920Z,14.80
2023-03-07T06:32:42.694Z,14.30
2023-03-07T06:35:12.210Z,14.10
2023-03-07T06:37:39.123Z,15.20
2023-03-07T06:40:08.728Z,14.40
2023-03-07T06:42:35.978Z,13.60
2023-03-07T06:45:03.292Z,13.90
2023-03-07T06:47:31.477Z,15.40
2023-03-07T06:49:58.714Z,16.20
2023-03-07T06:52:25.800Z,16.30
2023-03-07T06:54:53.032Z,17.30
2023-03-07T06:57:19.766Z,16.60
2023-03-07T06:59:47.850Z,16.20
2023-03-07T07:02:14.754Z,16.70
2023-03-07T07:04:41.550Z,17.50
2023-03-07T07:07:13.261Z,17.30
2023-03-07T07:09:39.969Z,19.60
2023-03-07T07:12:07.012Z,19.50
2023-03-07T07:14:41.929Z,18.60
2023-03-07T07:17:08.908Z,17.60
2023-03-07T07:19:35.660Z,17.00
2023-03-07T07:22:02.551Z,16.00
2023-03-07T07:24:29.964Z,16.40
2023-03-07T07:26:58.751Z,17.40
2023-03-07T07:29:26.414Z,18.30
2023-03-07T07:31:54.442Z,17.70
2023-03-07T07:34:21.432Z,16.80
2023-03-07T07:36:49.341Z,15.00
2023-03-07T07:39:17.129Z,14.40
2023-03-07T07:41:44.798Z,15.20
2023-03-07T07:44:11.866Z,13.80
2023-03-07T07:46:49.163Z,13.60
2023-03-07T07:49:18.630Z,13.90
2023-03-07T07:51:45.829Z,12.50
2023-03-07T07:54:12.694Z,12.70
2023-03-07T07:56:40.626Z,12.70
2023-03-07T07:59:07.292Z,14.00
2023-03-07T08:01:34.105Z,12.30
2023-03-07T08:04:00.864Z,13.20
2023-03-07T08:06:27.777Z,12.30
2023-03-07T08:08:55.472Z,13.30
2023-03-07T08:11:26.687Z,13.70
2023-03-07T08:13:53.499Z,12.70
2023-03-07T08:16:21.982Z,13.20
2023-03-07T08:18:50.145Z,14.30
2023-03-07T08:21:16.947Z,12.70
2023-03-07T08:23:44.264Z,23.40
2023-03-07T08:26:12.723Z,14.00
2023-03-07T08:28:40.707Z,13.90
2023-03-07T08:31:15.214Z,12.70
2023-03-07T08:33:42.475Z,13.70
2023-03-07T08:36:09.762Z,13.10
2023-03-07T08:38:37.069Z,12.20
2023-03-07T08:41:05.469Z,13.10
2023-03-07T08:43:33.375Z,13.30
2023-03-07T08:46:04.093Z,13.10
2023-03-07T08:48:31.311Z,13.00
2023-03-07T08:51:03.417Z,13.20
2023-03-07T08:53:31.019Z,14.20
2023-03-07T08:55:57.759Z,13.50
2023-03-07T08:58:24.652Z,13.50
2023-03-07T09:00:51.491Z,14.70
2023-03-07T09:03:18.457Z,14.30
2023-03-07T09:05:45.267Z,14.30
2023-03-07T09:08:13.022Z,15.10
2023-03-07T09:12:05.208Z,10.80
2023-03-07T09:14:37.590Z,14.30
2023-03-07T09:17:06.033Z,14.20
2023-03-07T09:19:35.388Z,14.70
2023-03-07T09:22:03.517Z,13.10
2023-03-07T09:24:31.853Z,14.00
2023-03-07T09:27:02.863Z,14.20
2023-03-07T09:29:31.938Z,15.00
2023-03-07T09:32:03.937Z,13.40
2023-03-07T09:34:32.297Z,14.00
2023-03-07T09:37:00.341Z,15.00
2023-03-07T09:39:31.820Z,15.20
2023-03-07T09:42:19.389Z,14.30
2023-03-07T09:45:12.790Z,14.30
2023-03-07T09:48:12.297Z,14.30
2023-03-07T09:50:43.500Z,15.20
2023-03-07T09:53:37.348Z,14.80
2023-03-07T09:56:19.499Z,14.50
2023-03-07T09:58:50.407Z,16.30
2023-03-07T10:01:21.438Z,14.80
2023-03-07T10:04:04.720Z,15.80
2023-03-07T10:06:32.986Z,15.00
2023-03-07T10:09:07.462Z,14.50
2023-03-07T10:12:00.726Z,13.50
2023-03-07T10:14:51.343Z,14.60
2023-03-07T10:17:36.716Z,13.90
2023-03-07T10:20:22.956Z,13.90
2023-03-07T10:23:22.795Z,14.40
2023-03-07T10:25:54.114Z,13.80
2023-03-07T10:28:25.815Z,14.50
2023-03-07T10:31:10.712Z,14.30
2023-03-07T10:33:40.942Z,13.80
2023-03-07T10:36:35.587Z,13.30
2023-03-07T10:39:05.087Z,14.30
2023-03-07T10:41:33.190Z,14.30
2023-03-07T10:44:01.404Z,13.20
2023-03-07T10:46:38.069Z,13.30
2023-03-07T10:49:14.716Z,15.10
2023-03-07T10:51:58.312Z,13.80
2023-03-07T10:54:34.144Z,12.60
2023-03-07T10:57:05.968Z,13.80
2023-03-07T10:59:34.802Z,13.90
2023-03-07T11:02:05.953Z,14.30
2023-03-07T11:04:45.327Z,12.30
2023-03-07T11:07:31.435Z,12.90
2023-03-07T11:10:00.089Z,13.20
2023-03-07T11:12:29.417Z,12.70
2023-03-07T11:15:09.876Z,12.50
2023-03-07T11:17:45.610Z,12.30
2023-03-07T11:20:25.758Z,12.00
2023-03-07T11:23:33.304Z,11.00
2023-03-07T11:26:17.001Z,10.20
2023-03-07T11:28:45.112Z,9.80
2023-03-07T11:31:23.382Z,9.80
2023-03-07T11:33:59.501Z,7.80
2023-03-07T11:39:15.231Z,9.50
2023-03-07T11:41:47.427Z,8.60
2023-03-07T11:44:53.008Z,9.90
2023-03-07T11:47:27.742Z,12.40
2023-03-07T11:50:06.750Z,9.30
2023-03-07T11:52:43.250Z,8.60
2023-03-07T11:55:29.525Z,9.30
2023-03-07T11:58:04.843Z,8.90
2023-03-07T12:01:14.034Z,9.40
2023-03-07T12:03:42.489Z,9.70
2023-03-07T12:06:55.459Z,8.40
2023-03-07T12:10:01.914Z,8.60
2023-03-07T12:12:36.966Z,9.00
2023-03-07T12:15:40.872Z,9.40
2023-03-07T12:18:25.515Z,8.90
2023-03-07T12:21:07.204Z,9.10
2023-03-07T12:23:59.552Z,8.70
2023-03-07T12:26:47.516Z,8.20
2023-03-07T12:29:27.851Z,8.90
2023-03-07T12:31:58.469Z,8.80
2023-03-07T12:34:34.575Z,9.30
2023-03-07T12:37:07.087Z,8.70
2023-03-07T12:39:53.707Z,8.60
2023-03-07T12:42:52.192Z,8.60
2023-03-07T12:45:21.676Z,7.70
2023-03-07T12:47:52.457Z,7.40
2023-03-07T12:50:38.966Z,8.00
2023-03-07T12:53:22.606Z,8.30
2023-03-07T12:56:19.617Z,8.10
2023-03-07T12:58:58.552Z,8.20
2023-03-07T13:01:38.386Z,7.40
2023-03-07T13:04:23.209Z,6.90
2023-03-07T13:06:51.396Z,7.70
2023-03-07T13:09:22.130Z,7.80
2023-03-07T13:12:25.625Z,7.90
2023-03-07T13:15:19.739Z,7.30
2023-03-07T13:17:49.474Z,7.50
2023-03-07T13:20:37.545Z,7.50
2023-03-07T13:23:33.910Z,7.20
2023-03-07T13:26:03.891Z,7.80
2023-03-07T13:28:41.270Z,8.40
2023-03-07T13:31:15.484Z,8.60
2023-03-07T13:33:44.470Z,9.10
2023-03-07T13:36:33.713Z,8.10
2023-03-07T13:39:01.925Z,8.00
2023-03-07T13:41:49.483Z,8.00
2023-03-07T13:44:32.149Z,7.60
2023-03-07T13:47:02.787Z,8.00
2023-03-07T13:49:41.500Z,8.30
2023-03-07T13:52:23.620Z,6.90
2023-03-07T13:54:52.411Z,7.10
2023-03-07T13:57:20.709Z,7.50
2023-03-07T13:59:49.618Z,7.20
2023-03-07T14:02:18.667Z,7.80
2023-03-07T14:04:55.930Z,7.90
2023-03-07T14:07:32.066Z,8.50
2023-03-07T14:10:21.469Z,8.60
2023-03-07T14:13:10.425Z,8.00
2023-03-07T14:15:52.887Z,9.10
2023-03-07T14:18:40.319Z,8.40
2023-03-07T14:21:37.903Z,8.70
2023-03-07T14:24:44.259Z,10.40
2023-03-07T14:27:14.626Z,11.00
2023-03-07T14:29:53.130Z,10.30
2023-03-07T14:32:25.328Z,10.40
2023-03-07T14:34:53.631Z,10.70
2023-03-07T14:37:26.556Z,10.00
2023-03-07T14:40:08.727Z,10.00
2023-03-07T14:42:55.190Z,13.30
2023-03-07T14:45:47.807Z,13.70
2023-03-07T14:48:27.148Z,12.20
2023-03-07T14:50:55.480Z,11.40
2023-03-07T14:53:29.527Z,12.10
2023-03-07T14:55:59.568Z,11.50
2023-03-07T14:58:29.728Z,11.40
2023-03-07T15:01:19.752Z,12.90
2023-03-07T15:03:49.377Z,12.30
2023-03-07T15:06:19.914Z,11.90
2023-03-07T15:08:49.477Z,11.50
2023-03-07T15:11:35.072Z,11.70
2023-03-07T15:14:11.633Z,11.90
2023-03-07T15:16:44.846Z,11.00
2023-03-07T15:19:48.023Z,17.20
2023-03-07T15:22:22.280Z,12.90
2023-03-07T15:24:52.034Z,12.20
2023-03-07T15:27:31.560Z,11.60
2023-03-07T15:30:01.009Z,13.50
2023-03-07T15:32:37.114Z,13.10
2023-03-07T15:35:08.453Z,11.50
2023-03-07T15:37:54.341Z,11.60
2023-03-07T15:40:26.639Z,11.00
2023-03-07T15:42:56.711Z,10.80
2023-03-07T15:45:38.646Z,12.10
2023-03-07T15:48:28.594Z,10.80
2023-03-07T15:50:59.632Z,10.00
2023-03-07T15:53:36.284Z,10.70
2023-03-07T15:58:35.003Z,10.30
2023-03-07T16:01:23.053Z,11.60
2023-03-07T16:03:55.992Z,11.30
2023-03-07T16:06:41.397Z,11.30
2023-03-07T16:09:18.220Z,10.50
2023-03-07T16:11:46.722Z,11.30
2023-03-07T16:14:26.540Z,10.70
2023-03-07T16:17:09.960Z,10.40
2023-03-07T16:19:38.209Z,10.80
2023-03-07T16:22:14.157Z,12.10
2023-03-07T16:24:42.461Z,10.30
2023-03-07T16:27:19.168Z,11.40
2023-03-07T16:29:48.252Z,11.30
2023-03-07T16:32:17.904Z,11.50
2023-03-07T16:34:51.601Z,10.50
2023-03-07T16:37:20.810Z,11.90
2023-03-07T16:39:48.828Z,11.90
2023-03-07T16:42:20.178Z,12.20
2023-03-07T16:44:49.532Z,11.20
2023-03-07T16:47:18.105Z,11.60
2023-03-07T16:49:50.974Z,13.30
2023-03-07T16:52:19.106Z,11.10
2023-03-07T16:54:48.437Z,10.20
2023-03-07T16:57:18.044Z,12.20
2023-03-07T16:59:47.185Z,12.00
2023-03-07T17:02:17.334Z,12.00
2023-03-07T17:04:46.180Z,11.40
2023-03-07T17:07:22.145Z,11.50
2023-03-07T17:09:51.593Z,11.50
2023-03-07T17:12:23.248Z,11.00
2023-03-07T17:14:51.342Z,11.30
2023-03-07T17:17:29.211Z,12.50
2023-03-07T17:19:57.435Z,10.80
2023-03-07T17:22:25.446Z,12.30
2023-03-07T17:24:53.456Z,12.00
2023-03-07T17:27:22.055Z,12.60
2023-03-07T17:29:52.941Z,12.40
2023-03-07T17:32:21.312Z,52.70
2023-03-07T17:34:49.674Z,25.20
2023-03-07T17:37:17.980Z,20.20
2023-03-07T17:39:46.060Z,46.90
2023-03-07T17:42:14.213Z,24.20
2023-03-07T17:44:42.653Z,15.30
2023-03-07T17:47:10.818Z,13.00
2023-03-07T17:49:39.266Z,13.20
2023-03-07T17:52:08.680Z,14.90
2023-03-07T17:54:37.173Z,22.40
2023-03-07T17:57:08.071Z,14.10
2023-03-07T17:59:36.369Z,26.70
2023-03-07T18:02:06.242Z,14.20
2023-03-07T18:04:35.274Z,13.70
2023-03-07T18:07:04.756Z,13.70
2023-03-07T18:09:33.081Z,14.80
2023-03-07T18:12:01.234Z,13.10
2023-03-07T18:14:30.113Z,14.90
2023-03-07T18:16:58.741Z,14.50
2023-03-07T18:19:28.249Z,13.50
2023-03-07T18:21:57.523Z,15.60
2023-03-07T18:24:27.400Z,14.40
2023-03-07T18:26:59.227Z,14.80
2023-03-07T18:29:27.646Z,15.30
2023-03-07T18:31:55.909Z,14.00
2023-03-07T18:34:25.109Z,15.10
2023-03-07T18:36:54.369Z,14.40
2023-03-07T18:39:22.906Z,13.80
2023-03-07T18:41:51.084Z,15.00
2023-03-07T18:44:19.854Z,14.80
2023-03-07T18:46:49.629Z,16.00
2023-03-07T18:49:18.292Z,15.60
2023-03-07T18:51:48.495Z,14.60
2023-03-07T18:54:17.054Z,15.50
2023-03-07T18:56:46.962Z,15.20
2023-03-07T18:59:15.965Z,14.50
2023-03-07T19:01:44.427Z,14.40
2023-03-07T19:04:12.821Z,15.10
2023-03-07T19:06:45.307Z,15.10
2023-03-07T19:09:15.585Z,14.60
2023-03-07T19:11:44.138Z,14.60
2023-03-07T19:14:14.185Z,14.60
2023-03-07T19:16:42.417Z,14.40
2023-03-07T19:19:13.170Z,15.10
2023-03-07T19:21:41.398Z,14.60
2023-03-07T19:24:11.565Z,13.30
2023-03-07T19:26:41.728Z,14.80
2023-03-07T19:29:12.283Z,13.70
2023-03-07T19:31:44.064Z,13.80
2023-03-07T19:34:12.864Z,13.80
2023-03-07T19:36:41.733Z,12.50
2023-03-07T19:39:14.682Z,13.90
2023-03-07T19:41:45.487Z,13.70
2023-03-07T19:44:14.088Z,13.10
2023-03-07T19:46:46.419Z,13.10
2023-03-07T19:49:23.096Z,13.70
2023-03-07T19:51:51.571Z,13.50
2023-03-07T19:54:21.131Z,12.80
2023-03-07T19:56:49.486Z,12.70
2023-03-07T19:59:17.877Z,13.20
2023-03-07T20:01:46.212Z,13.40
2023-03-07T20:04:16.309Z,13.50
2023-03-07T20:06:44.671Z,14.10
2023-03-07T20:09:13.150Z,13.20
2023-03-07T20:11:43.405Z,13.90
2023-03-07T20:14:12.266Z,13.50
2023-03-07T20:16:41.962Z,13.20
2023-03-07T20:19:10.469Z,14.00
2023-03-07T20:21:44.475Z,12.50
2023-03-07T20:24:12.943Z,13.80
2023-03-07T20:26:40.959Z,13.40
2023-03-07T20:29:09.654Z,14.00
2023-03-07T20:31:39.468Z,13.00
2023-03-07T20:34:09.016Z,13.40
2023-03-07T20:36:39.449Z,12.70
2023-03-07T20:39:09.923Z,13.40
2023-03-07T20:41:43.032Z,12.60
2023-03-07T20:44:13.938Z,13.80
2023-03-07T20:46:42.070Z,12.20
2023-03-07T20:49:12.822Z,13.50
2023-03-07T20:51:41.405Z,13.60
2023-03-07T20:54:16.887Z,13.80
2023-03-07T20:56:46.222Z,10.50
2023-03-07T20:59:18.945Z,13.50
2023-03-07T21:01:47.190Z,13.20
2023-03-07T21:04:17.902Z,13.90
2023-03-07T21:06:47.406Z,13.60
2023-03-07T21:09:16.562Z,13.90
2023-03-07T21:11:46.500Z,14.00
2023-03-07T21:14:15.542Z,14.10
2023-03-07T21:16:44.598Z,14.00
2023-03-07T21:19:13.135Z,14.40
2023-03-07T21:21:41.465Z,13.60
2023-03-07T21:24:12.115Z,14.60
2023-03-07T21:26:43.273Z,14.70
2023-03-07T21:30:49.552Z,11.60
2023-03-07T21:33:18.385Z,13.60
2023-03-07T21:35:46.609Z,14.20
2023-03-07T21:38:14.733Z,13.80
2023-03-07T21:40:42.952Z,13.50
2023-03-07T21:43:11.023Z,14.90
2023-03-07T21:45:40.791Z,14.30
2023-03-07T21:48:09.264Z,15.40
2023-03-07T21:50:43.335Z,14.40
2023-03-07T21:53:11.972Z,14.20
2023-03-07T21:55:58.484Z,15.50
2023-03-07T21:58:27.302Z,15.00
2023-03-07T22:00:56.982Z,15.10
2023-03-07T22:03:26.300Z,14.50
2023-03-07T22:05:56.936Z,15.10
2023-03-07T22:08:25.574Z,15.00
2023-03-07T22:11:00.616Z,13.80
2023-03-07T22:13:34.491Z,15.30
2023-03-07T22:16:04.673Z,15.20
2023-03-07T22:18:36.816Z,15.90
2023-03-07T22:21:14.968Z,14.90
2023-03-07T22:23:49.365Z,14.60
2023-03-07T22:26:17.584Z,16.10
2023-03-07T22:28:45.605Z,15.80
2023-03-07T22:31:13.913Z,17.10
2023-03-07T22:33:42.372Z,15.50
2023-03-07T22:36:15.185Z,15.70
2023-03-07T22:38:44.727Z,16.30
2023-03-07T22:41:14.923Z,16.50
2023-03-07T22:43:43.694Z,16.70
2023-03-07T22:46:11.944Z,16.40
2023-03-07T22:48:41.085Z,16.70
2023-03-07T22:51:13.957Z,16.40
2023-03-07T22:53:42.480Z,15.40
2023-03-07T22:56:20.917Z,15.50
2023-03-07T22:58:49.055Z,15.80
2023-03-07T23:01:20.409Z,15.10
2023-03-07T23:03:49.660Z,15.90
2023-03-07T23:06:18.166Z,17.10
2023-03-07T23:08:47.626Z,15.80
2023-03-07T23:11:19.623Z,15.60
2023-03-07T23:13:49.088Z,15.50
2023-03-07T23:16:18.905Z,16.40
2023-03-07T23:18:51.083Z,16.10
2023-03-07T23:21:20.295Z,16.40
2023-03-07T23:23:48.424Z,15.90
2023-03-07T23:26:18.680Z,17.80
2023-03-07T23:28:47.782Z,17.30
2023-03-07T23:31:23.288Z,16.20
2023-03-07T23:33:58.009Z,16.10
2023-03-07T23:36:27.127Z,16.60
2023-03-07T23:38:56.023Z,16.30
2023-03-07T23:41:24.556Z,14.70
2023-03-07T23:43:53.744Z,14.90
2023-03-07T23:46:22.291Z,15.40
2023-03-07T23:48:52.502Z,14.70
2023-03-07T23:51:21.135Z,15.90
2023-03-07T23:53:49.616Z,15.30
2023-03-07T23:56:17.735Z,15.10
2023-03-07T23:58:49.708Z,15.60
